Time;durP1;ratioP1;P1;durP2;ratioP2;P2;SDS_P1;SDS_P2;PMS_P1;PMS_P2;Temp;Humidity;BMP_temperature;BMP_pressure;BME280_temperature;BME280_humidity;BME280_pressure;Samples;Min_cycle;Max_cycle;Signal;HPM_P1;HPM_P2
2023/03/25 00:02:13;;;;;;;;;;;;;;;7.99;100.00;100115.94;5052588;28;20051;-61
2023/03/25 00:04:39;;;;;;;13.57;3.47;;;;;;;7.97;100.00;100113.34;5053003;28;19912;-61
2023/03/25 00:07:05;;;;;;;19.20;3.45;;;;;;;7.99;100.00;100103.13;5052696;28;20377;-61
2023/03/25 00:09:30;;;;;;;10.98;3.03;;;;;;;8.01;100.00;100098.91;5052339;28;20025;-61
2023/03/25 00:11:56;;;;;;;15.45;3.47;;;;;;;7.99;100.00;100109.16;5052443;28;20058;-61
2023/03/25 00:14:23;;;;;;;12.52;3.10;;;;;;;8.02;100.00;100116.91;5053002;28;20033;-60
2023/03/25 00:16:51;;;;;;;13.27;3.08;;;;;;;8.04;100.00;100106.69;5052288;28;20032;-61
2023/03/25 00:19:17;;;;;;;19.50;3.95;;;;;;;8.05;100.00;100117.00;5052525;28;20021;-60
2023/03/25 00:21:45;;;;;;;14.35;2.90;;;;;;;8.04;100.00;100109.25;5052858;28;20121;-60
2023/03/25 00:24:16;;;;;;;;;;;;;;;8.09;100.00;100117.94;5052320;28;20036;-61
2023/03/25 00:26:47;;;;;;;15.35;3.38;;;;;;;8.04;100.00;100109.25;5052654;28;19939;-61
2023/03/25 00:29:13;;;;;;;19.02;3.78;;;;;;;8.01;99.90;100106.63;5052377;28;20017;-61
2023/03/25 00:31:39;;;;;;;15.13;3.20;;;;;;;7.98;99.88;100114.22;5052368;28;20108;-61
2023/03/25 00:34:05;;;;;;;17.80;3.72;;;;;;;7.98;99.20;100101.38;5052330;28;20025;-61
2023/03/25 00:36:30;;;;;;;13.45;3.42;;;;;;;7.99;98.54;100101.44;5052287;28;20399;-61
2023/03/25 00:38:55;;;;;;;16.45;3.30;;;;;;;7.99;98.55;100096.31;5052390;28;20028;-61
2023/03/25 00:41:27;;;;;;;12.20;2.97;;;;;;;8.01;97.49;100114.31;5052461;28;20021;-60
2023/03/25 00:43:57;;;;;;;13.52;3.30;;;;;;;8.00;97.94;100107.44;5051915;28;20388;-61
2023/03/25 00:46:25;;;;;;;12.20;3.17;;;;;;;8.00;97.22;100108.28;5052397;28;20028;-60
2023/03/25 00:48:51;;;;;;;16.27;3.75;;;;;;;8.01;97.63;100114.31;5052382;28;20528;-61
2023/03/25 00:51:20;;;;;;;13.30;3.58;;;;;;;8.02;97.11;100105.78;5051759;28;20100;-60
2023/03/25 00:53:46;;;;;;;20.35;3.60;;;;;;;8.00;97.14;100110.00;5052320;28;20057;-61
2023/03/25 00:56:12;;;;;;;11.85;3.08;;;;;;;7.97;97.76;100102.22;5052145;28;20029;-61
2023/03/25 00:58:37;;;;;;;17.52;3.72;;;;;;;7.94;98.15;100114.97;5051769;28;20036;-61
2023/03/25 01:01:22;;;;;;;14.60;3.13;;;;;;;7.93;98.59;100106.41;5051810;28;20045;-60
2023/03/25 01:03:48;;;;;;;18.35;3.28;;;;;;;7.90;98.54;100102.06;5052435;28;20092;-62
2023/03/25 01:06:15;;;;;;;14.13;3.00;;;;;;;7.89;98.46;100105.44;5051628;28;20075;-62
2023/03/25 01:08:42;;;;;;;15.63;3.15;;;;;;;7.91;98.05;100114.06;5052072;28;20522;-62
2023/03/25 01:11:18;;;;;;;14.15;3.15;;;;;;;7.89;99.04;100108.00;5052025;28;20120;-62
2023/03/25 01:13:44;;;;;;;11.82;3.35;;;;;;;7.91;98.99;100108.03;5051818;28;20029;-62
2023/03/25 01:16:10;;;;;;;14.90;3.20;;;;;;;7.86;99.21;100107.94;5052041;28;20021;-62
2023/03/25 01:18:37;;;;;;;12.63;3.22;;;;;;;7.86;99.62;100114.75;5052405;28;20104;-62
2023/03/25 01:21:06;;;;;;;15.43;3.38;;;;;;;7.84;99.27;100107.00;5053133;28;20025;-62
2023/03/25 01:23:32;;;;;;;14.93;3.90;;;;;;;7.82;99.81;100108.63;5055901;28;20155;-62
2023/03/25 01:25:58;;;;;;;14.57;3.47;;;;;;;7.82;99.58;100098.38;5055082;28;20028;-62
2023/03/25 01:28:24;;;;;;;14.07;3.00;;;;;;;7.81;99.77;100109.50;5056364;28;20056;-62
2023/03/25 01:30:49;;;;;;;11.55;3.03;;;;;;;7.80;99.77;100099.16;5055913;28;20448;-62
2023/03/25 01:33:15;;;;;;;16.77;4.00;;;;;;;7.79;99.88;100097.44;5055225;28;20044;-62
2023/03/25 01:35:41;;;;;;;13.88;3.63;;;;;;;7.78;100.00;100101.69;5055763;28;20060;-61
2023/03/25 01:38:06;;;;;;;11.65;3.50;;;;;;;7.75;100.00;100106.75;5055543;28;20028;-62
2023/03/25 01:40:33;;;;;;;11.20;3.78;;;;;;;7.71;100.00;100117.75;5055436;28;20067;-62
2023/03/25 01:42:58;;;;;;;11.48;3.22;;;;;;;7.69;100.00;100104.00;5055550;28;20074;-62
2023/03/25 01:45:29;;;;;;;9.18;3.40;;;;;;;7.66;100.00;100112.47;5055832;28;20116;-62
2023/03/25 01:48:01;;;;;;;14.75;3.33;;;;;;;7.58;100.00;100108.81;5055042;28;20376;-62
2023/03/25 01:50:28;;;;;;;14.32;3.15;;;;;;;7.48;100.00;100117.91;5055351;28;20123;-62
2023/03/25 01:52:56;;;;;;;10.85;3.40;;;;;;;7.39;100.00;100115.94;5055804;28;20029;-62
2023/03/25 01:55:22;;;;;;;9.75;3.13;;;;;;;7.33;100.00;100112.31;5055466;28;20029;-62
2023/03/25 01:57:53;;;;;;;14.10;3.75;;;;;;;7.26;100.00;100101.00;5055423;28;20035;-62
2023/03/25 02:00:19;;;;;;;9.85;3.67;;;;;;;7.19;100.00;100099.06;5055033;28;20507;-62
2023/03/25 02:02:45;;;;;;;17.40;4.10;;;;;;;7.15;100.00;100092.97;5054882;28;20032;-62
2023/03/25 02:05:18;;;;;;;12.70;3.58;;;;;;;7.12;100.00;100095.44;5054681;28;20361;-62
2023/03/25 02:07:46;;;;;;;12.40;3.53;;;;;;;7.09;100.00;100092.81;5055624;28;20033;-62
2023/03/25 02:10:13;;;;;;;12.40;3.50;;;;;;;7.13;100.00;100096.31;5054768;28;20059;-62
2023/03/25 02:12:40;;;;;;;10.30;3.10;;;;;;;7.12;100.00;100090.31;5055136;28;20017;-62
2023/03/25 02:15:08;;;;;;;13.10;3.20;;;;;;;7.15;100.00;100081.88;5054304;28;20052;-62
2023/03/25 02:18:02;;;;;;;7.35;2.83;;;;;;;7.17;100.00;100091.34;5055083;28;20552;-62
2023/03/25 02:21:16;;;;;;;7.88;2.63;;;;;;;7.16;100.00;100074.22;5055120;28;20392;-62
2023/03/25 02:23:56;;;;;;;11.73;3.17;;;;;;;7.11;100.00;100086.00;5054471;28;20021;-61
2023/03/25 02:26:43;;;;;;;10.77;4.13;;;;;;;7.03;100.00;100098.59;5054938;28;20025;-61
2023/03/25 02:29:39;;;;;;;11.68;3.95;;;;;;;6.95;100.00;100097.47;5054218;28;20039;-61
2023/03/25 02:32:13;;;;;;;11.25;3.63;;;;;;;6.85;100.00;100093.75;5054266;28;20037;-62
2023/03/25 02:35:00;;;;;;;14.07;4.55;;;;;;;6.85;100.00;100096.31;5055069;28;20100;-61
2023/03/25 02:38:08;;;;;;;13.00;3.60;;;;;;;6.83;100.00;100087.72;5054216;28;20427;-62
2023/03/25 02:40:44;;;;;;;;;;;;;;;6.86;100.00;100090.38;5054819;28;20060;-62
2023/03/25 02:43:21;;;;;;;17.30;3.70;;;;;;;6.84;100.00;100091.13;5054076;28;19919;-62
2023/03/25 02:45:51;;;;;;;12.15;3.28;;;;;;;6.83;100.00;100079.16;5054558;28;20033;-62
2023/03/25 02:48:22;;;;;;;11.98;3.83;;;;;;;6.86;100.00;100081.81;5054197;28;20060;-62
2023/03/25 02:50:52;;;;;;;13.85;3.60;;;;;;;6.84;100.00;100086.91;5054158;28;20021;-61
2023/03/25 02:53:24;;;;;;;13.95;3.45;;;;;;;6.91;100.00;100070.88;5054228;28;20027;-62
2023/03/25 02:55:52;;;;;;;13.75;3.75;;;;;;;6.95;100.00;100078.69;5054457;28;20025;-62
2023/03/25 02:58:20;;;;;;;13.50;3.50;;;;;;;6.99;100.00;100068.56;5053645;28;20040;-62
2023/03/25 03:00:48;;;;;;;14.30;3.53;;;;;;;7.00;100.00;100067.75;5054099;28;20044;-62
2023/03/25 03:03:14;;;;;;;12.50;3.08;;;;;;;7.00;100.00;100079.72;5054108;28;20037;-62
2023/03/25 03:05:45;;;;;;;13.65;3.67;;;;;;;6.98;100.00;100079.63;5053882;28;20051;-62
2023/03/25 03:08:28;;;;;;;13.32;3.42;;;;;;;7.01;100.00;100086.53;5053628;28;20487;-62
2023/03/25 03:11:19;;;;;;;13.70;3.33;;;;;;;6.97;100.00;100071.91;5054228;28;20029;-62
2023/03/25 03:14:18;;;;;;;16.17;4.30;;;;;;;6.92;100.00;100070.06;5054107;28;20037;-62
2023/03/25 03:16:59;;;;;;;12.20;3.78;;;;;;;6.88;100.00;100077.59;5054076;28;20033;-62
2023/03/25 03:20:04;;;;;;;14.15;4.38;;;;;;;6.87;100.00;100074.19;5053545;28;20040;-62
2023/03/25 03:22:34;;;;;;;14.32;4.18;;;;;;;6.79;100.00;100072.19;5053340;28;20464;-62
2023/03/25 03:25:20;;;;;;;25.02;4.53;;;;;;;6.73;100.00;100078.00;5053465;28;20029;-61
2023/03/25 03:28:04;;;;;;;18.20;4.30;;;;;;;6.71;100.00;100074.50;5053939;28;20473;-61
2023/03/25 03:30:53;;;;;;;19.92;4.47;;;;;;;6.66;100.00;100065.78;5053776;28;20025;-61
2023/03/25 03:33:26;;;;;;;20.77;5.07;;;;;;;6.62;100.00;100074.19;5053179;28;20028;-61
2023/03/25 03:35:56;;;;;;;19.80;4.78;;;;;;;6.61;100.00;100077.56;5053674;28;20066;-61
2023/03/25 03:38:25;;;;;;;16.50;4.50;;;;;;;6.59;100.00;100073.28;5053806;28;20024;-62
2023/03/25 03:41:00;;;;;;;18.27;4.28;;;;;;;6.64;100.00;100072.56;5053019;28;20152;-62
2023/03/25 03:43:35;;;;;;;21.58;4.78;;;;;;;6.65;100.00;100067.50;5052730;28;20383;-62
2023/03/25 03:46:08;;;;;;;22.23;4.80;;;;;;;6.66;100.00;100069.25;5053212;28;20037;-63
2023/03/25 03:48:48;;;;;;;15.55;4.38;;;;;;;6.69;100.00;100071.03;5053034;28;20469;-62
2023/03/25 03:51:23;;;;;;;25.25;4.75;;;;;;;6.71;100.00;100072.81;5053012;28;20032;-62
2023/03/25 03:54:04;;;;;;;22.98;4.45;;;;;;;6.75;100.00;100072.09;5053050;28;20029;-62
2023/03/25 03:56:36;;;;;;;15.07;3.95;;;;;;;6.76;100.00;100075.53;5053615;28;20063;-62
2023/03/25 03:59:09;;;;;;;24.67;4.55;;;;;;;6.77;100.00;100059.34;5053065;28;20052;-62
2023/03/25 04:01:44;;;;;;;18.40;4.15;;;;;;;6.78;100.00;100065.31;5052610;28;20045;-62
2023/03/25 04:04:14;;;;;;;16.90;4.32;;;;;;;6.79;100.00;100067.06;5052510;28;20473;-62
2023/03/25 04:07:00;;;;;;;21.33;4.15;;;;;;;6.76;100.00;100067.84;5053303;28;20021;-62
2023/03/25 04:09:55;;;;;;;29.43;4.57;;;;;;;6.77;100.00;100069.59;5052591;28;20051;-62
2023/03/25 04:12:30;;;;;;;23.83;4.13;;;;;;;6.78;100.00;100073.88;5052906;28;20276;-62
2023/03/25 04:14:59;;;;;;;15.50;4.10;;;;;;;6.82;100.00;100062.91;5052351;28;20028;-63
2023/03/25 04:17:28;;;;;;;22.45;4.10;;;;;;;6.83;100.00;100064.66;5052838;28;20017;-62
2023/03/25 04:19:55;;;;;;;19.83;3.75;;;;;;;6.86;100.00;100051.94;5052804;28;20029;-62
2023/03/25 04:22:20;;;;;;;16.52;4.25;;;;;;;6.89;100.00;100053.72;5052390;28;20021;-62
2023/03/25 04:24:48;;;;;;;16.02;3.30;;;;;;;6.88;100.00;100045.19;5052616;28;20103;-62
2023/03/25 04:27:15;;;;;;;17.77;3.60;;;;;;;6.92;100.00;100058.97;5052676;28;20059;-62
2023/03/25 04:29:42;;;;;;;19.33;3.92;;;;;;;6.94;100.00;100071.81;5052322;28;20021;-62
2023/03/25 04:32:09;;;;;;;17.52;3.20;;;;;;;6.95;100.00;100078.69;5052263;28;20052;-62
2023/03/25 04:34:34;;;;;;;15.85;3.42;;;;;;;6.97;100.00;100061.66;5052801;28;20032;-62
2023/03/25 04:37:00;;;;;;;14.10;3.17;;;;;;;6.98;100.00;100068.53;5051791;28;20028;-62
2023/03/25 04:39:28;;;;;;;11.38;3.33;;;;;;;6.96;100.00;100063.38;5052454;28;20083;-62
2023/03/25 04:41:55;;;;;;;11.48;3.30;;;;;;;6.94;100.00;100071.81;5052604;28;20104;-62
2023/03/25 04:44:22;;;;;;;14.02;3.75;;;;;;;6.89;100.00;100085.34;5052287;28;20103;-62
2023/03/25 04:46:48;;;;;;;14.07;3.58;;;;;;;6.85;100.00;100082.63;5052501;28;20112;-62
2023/03/25 04:49:21;;;;;;;19.73;3.78;;;;;;;6.80;100.00;100064.53;5052498;28;20111;-62
2023/03/25 04:51:51;;;;;;;14.00;3.38;;;;;;;6.81;100.00;100084.22;5051997;28;20547;-62
2023/03/25 04:54:18;;;;;;;16.50;3.53;;;;;;;6.78;100.00;100076.44;5052236;28;20033;-62
2023/03/25 04:56:43;;;;;;;14.30;3.97;;;;;;;6.75;100.00;100073.78;5055021;28;20017;-62
2023/03/25 04:59:09;;;;;;;14.88;4.05;;;;;;;6.72;100.00;100071.13;5056261;28;20282;-62
2023/03/25 05:01:36;;;;;;;15.00;4.18;;;;;;;6.67;100.00;100081.19;5056810;28;20041;-62
2023/03/25 05:04:04;;;;;;;13.00;3.60;;;;;;;6.62;100.00;100069.94;5055723;28;20017;-61
2023/03/25 05:06:34;;;;;;;17.80;4.05;;;;;;;6.56;100.00;100070.63;5056251;28;20076;-62
2023/03/25 05:09:03;;;;;;;19.48;4.10;;;;;;;6.55;100.00;100081.66;5056342;28;20021;-62
2023/03/25 05:11:29;;;;;;;14.13;3.88;;;;;;;6.54;100.00;100079.94;5055982;28;20025;-62
2023/03/25 05:13:55;;;;;;;16.65;4.25;;;;;;;6.55;100.00;100081.66;5055793;28;20035;-62
2023/03/25 05:16:21;;;;;;;22.10;3.85;;;;;;;6.54;100.00;100082.47;5056465;28;20021;-62
2023/03/25 05:18:46;;;;;;;19.67;4.05;;;;;;;6.50;100.00;100080.66;5055746;28;20025;-61
2023/03/25 05:21:12;;;;;;;18.75;4.60;;;;;;;6.48;100.00;100076.28;5056021;28;20031;-61
2023/03/25 05:23:37;;;;;;;14.35;3.53;;;;;;;6.44;100.00;100090.66;5056444;28;20031;-61
2023/03/25 05:26:03;;;;;;;20.80;4.43;;;;;;;6.43;100.00;100094.94;5055401;28;20059;-61
2023/03/25 05:28:29;;;;;;;18.90;4.38;;;;;;;6.42;100.00;100092.31;5055703;28;20025;-62
2023/03/25 05:30:54;;;;;;;16.52;3.78;;;;;;;6.42;100.00;100088.06;5055788;28;20029;-62
2023/03/25 05:33:20;;;;;;;19.73;4.78;;;;;;;6.42;100.00;100089.78;5055401;28;20087;-62
2023/03/25 05:35:46;;;;;;;20.35;4.10;;;;;;;6.45;100.00;100087.28;5055981;28;20040;-62
2023/03/25 05:38:15;;;;;;;18.13;4.15;;;;;;;6.49;100.00;100098.53;5055687;28;20372;-62
2023/03/25 05:40:40;;;;;;;17.95;3.85;;;;;;;6.49;100.00;100089.13;5055497;28;20059;-62
2023/03/25 05:43:06;;;;;;;19.55;4.47;;;;;;;6.51;100.00;100084.97;5055233;28;20064;-62
2023/03/25 05:45:34;;;;;;;19.52;4.15;;;;;;;6.55;100.00;100088.50;5055561;28;20034;-62
2023/03/25 05:48:00;;;;;;;16.50;4.03;;;;;;;6.59;100.00;100091.19;5054799;28;20082;-62
2023/03/25 05:50:27;;;;;;;15.63;3.78;;;;;;;6.60;100.00;100097.19;5055587;28;20024;-62
2023/03/25 05:52:54;;;;;;;18.30;4.57;;;;;;;6.62;100.00;100092.13;5055635;28;20380;-63
2023/03/25 05:55:22;;;;;;;16.00;4.07;;;;;;;6.63;100.00;100088.75;5054804;28;20410;-62
2023/03/25 05:57:48;;;;;;;14.55;3.47;;;;;;;6.64;100.00;100098.19;5055588;28;20148;-62
2023/03/25 06:00:14;;;;;;;12.48;3.65;;;;;;;6.62;100.00;100099.81;5054568;28;20143;-62
2023/03/25 06:02:41;;;;;;;15.98;3.78;;;;;;;6.68;100.00;100106.00;5055110;28;20025;-63
2023/03/25 06:05:08;;;;;;;18.80;4.28;;;;;;;6.70;100.00;100118.84;5055247;28;20040;-63
2023/03/25 06:07:36;;;;;;;19.27;4.73;;;;;;;6.70;100.00;100124.84;5054331;28;20021;-62
2023/03/25 06:10:02;;;;;;;18.45;4.28;;;;;;;6.71;100.00;100126.59;5054544;28;20355;-62
2023/03/25 06:12:31;;;;;;;21.95;4.95;;;;;;;6.69;100.00;100123.09;5055208;28;20510;-62
2023/03/25 06:14:56;;;;;;;18.27;4.60;;;;;;;6.69;100.00;100117.13;5054166;28;20480;-62
2023/03/25 06:17:22;;;;;;;16.23;4.43;;;;;;;6.69;100.00;100114.56;5054960;28;20029;-62
2023/03/25 06:19:48;;;;;;;16.10;4.05;;;;;;;6.67;100.00;100105.94;5055209;28;20021;-62
2023/03/25 06:22:14;;;;;;;17.02;4.38;;;;;;;6.69;100.00;100124.81;5054270;28;20067;-62
2023/03/25 06:24:40;;;;;;;19.65;4.35;;;;;;;6.71;100.00;100121.47;5054802;28;20061;-63
2023/03/25 06:27:11;;;;;;;16.52;3.95;;;;;;;6.75;100.00;100107.94;5054747;28;20104;-62
2023/03/25 06:29:37;;;;;;;20.67;4.40;;;;;;;6.77;100.00;100120.81;5054528;28;20481;-62
2023/03/25 06:32:07;;;;;;;19.80;4.15;;;;;;;6.84;100.00;100111.63;5054481;28;20496;-62
2023/03/25 06:34:32;;;;;;;17.00;4.05;;;;;;;6.88;100.00;100109.22;5054917;28;20551;-62
2023/03/25 06:36:59;;;;;;;16.10;3.85;;;;;;;6.90;100.00;100115.25;5054268;28;20112;-62
2023/03/25 06:39:24;;;;;;;20.40;4.78;;;;;;;6.96;100.00;100117.16;5054806;28;20032;-62
2023/03/25 06:41:50;;;;;;;22.50;4.38;;;;;;;7.03;100.00;100118.22;5054941;28;20028;-63
2023/03/25 06:44:15;;;;;;;19.02;4.25;;;;;;;7.12;100.00;100133.03;5053827;28;20025;-63
2023/03/25 06:46:41;;;;;;;29.73;4.97;;;;;;;7.21;100.00;100135.88;5054690;28;20032;-62
2023/03/25 06:49:07;;;;;;;20.45;4.40;;;;;;;7.27;100.00;100117.25;5054328;28;20202;-62
2023/03/25 06:51:32;;;;;;;20.35;4.25;;;;;;;7.32;100.00;100143.91;5054044;28;20017;-62
2023/03/25 06:53:57;;;;;;;17.10;4.15;;;;;;;7.34;100.00;100142.25;5054508;28;20029;-62
2023/03/25 06:56:23;;;;;;;26.48;5.15;;;;;;;7.37;100.00;100137.22;5054306;28;20033;-62
2023/03/25 06:58:48;;;;;;;19.63;4.20;;;;;;;7.39;100.00;100139.00;5054238;28;20021;-62
2023/03/25 07:01:13;;;;;;;25.17;4.88;;;;;;;7.42;100.00;100145.91;5054070;28;20075;-63
2023/03/25 07:03:39;;;;;;;22.35;4.68;;;;;;;7.45;100.00;100135.78;5053922;28;20143;-62
2023/03/25 07:06:06;;;;;;;24.25;4.75;;;;;;;7.49;100.00;100137.59;5053894;28;20033;-62
2023/03/25 07:08:31;;;;;;;22.20;4.18;;;;;;;7.52;100.00;100134.28;5054461;28;20104;-63
2023/03/25 07:11:06;;;;;;;22.05;5.03;;;;;;;7.52;100.00;100136.84;5053506;28;20111;-63
2023/03/25 07:13:31;;;;;;;22.67;5.43;;;;;;;7.55;100.00;100132.69;5053985;28;20021;-62
2023/03/25 07:15:57;;;;;;;20.23;4.70;;;;;;;7.55;100.00;100135.25;5054089;28;20436;-63
2023/03/25 07:18:23;;;;;;;18.65;4.55;;;;;;;7.59;100.00;100131.03;5052851;28;20028;-62
2023/03/25 07:20:49;;;;;;;24.33;5.65;;;;;;;7.71;100.00;100135.69;5053952;28;20021;-62
2023/03/25 07:23:14;;;;;;;21.63;5.25;;;;;;;7.73;100.00;100137.47;5053781;28;20480;-62
2023/03/25 07:25:40;;;;;;;20.40;4.97;;;;;;;7.71;100.00;100139.13;5053325;28;20032;-62
2023/03/25 07:28:05;;;;;;;24.00;5.70;;;;;;;7.57;100.00;100138.69;5053414;28;20021;-61
2023/03/25 07:30:31;;;;;;;21.13;4.90;;;;;;;7.45;100.00;100132.31;5053856;28;20017;-60
2023/03/25 07:32:56;;;;;;;23.73;5.53;;;;;;;7.40;100.00;100145.03;5053111;28;20107;-62
2023/03/25 07:35:21;;;;;;;29.20;5.97;;;;;;;7.33;100.00;100153.34;5053611;28;20384;-62
2023/03/25 07:37:47;;;;;;;27.25;5.43;;;;;;;7.24;100.00;100149.66;5053732;28;20033;-61
2023/03/25 07:40:12;;;;;;;23.00;5.25;;;;;;;7.18;100.00;100144.34;5052947;28;20553;-61
2023/03/25 07:42:37;;;;;;;27.77;5.20;;;;;;;7.14;100.00;100152.75;5053384;28;20116;-61
2023/03/25 07:45:04;;;;;;;28.92;6.00;;;;;;;7.08;100.00;100153.41;5053172;28;20021;-61
2023/03/25 07:47:29;;;;;;;22.02;4.85;;;;;;;7.09;100.00;100154.31;5052961;28;20032;-61
2023/03/25 07:49:55;;;;;;;21.85;4.78;;;;;;;7.10;100.00;100153.44;5053226;28;20013;-61
2023/03/25 07:52:20;;;;;;;35.03;5.38;;;;;;;7.15;100.00;100153.63;5053470;28;20033;-61
2023/03/25 07:54:45;;;;;;;26.00;5.93;;;;;;;7.16;100.00;100161.34;5052528;28;20033;-61
2023/03/25 07:57:12;;;;;;;33.47;5.63;;;;;;;7.18;100.00;100162.28;5052812;28;20104;-61
2023/03/25 07:59:37;;;;;;;28.17;5.55;;;;;;;7.19;100.00;100170.81;5052634;28;20060;-61
2023/03/25 08:02:02;;;;;;;29.13;6.35;;;;;;;7.20;100.00;100170.88;5052417;28;20504;-62
2023/03/25 08:04:28;;;;;;;26.90;5.82;;;;;;;7.25;100.00;100164.19;5053355;28;20110;-62
2023/03/25 08:06:54;;;;;;;35.63;5.97;;;;;;;7.30;100.00;100163.50;5052515;28;20114;-61
2023/03/25 08:09:19;;;;;;;26.33;5.43;;;;;;;7.41;100.00;100172.38;5052918;28;20056;-61
2023/03/25 08:11:46;;;;;;;22.55;4.93;;;;;;;7.48;100.00;100179.44;5053119;28;20033;-61
2023/03/25 08:14:12;;;;;;;27.00;5.15;;;;;;;7.53;100.00;100177.91;5052436;28;20029;-61
2023/03/25 08:16:37;;;;;;;27.95;5.57;;;;;;;7.52;100.00;100183.84;5053014;28;20032;-60
2023/03/25 08:19:03;;;;;;;30.65;6.10;;;;;;;7.52;100.00;100185.56;5052807;28;20021;-61
2023/03/25 08:21:28;;;;;;;29.42;5.43;;;;;;;7.51;100.00;100189.78;5052527;28;20107;-60
2023/03/25 08:24:00;;;;;;;29.20;5.45;;;;;;;7.47;100.00;100194.78;5052593;28;20028;-62
2023/03/25 08:26:28;;;;;;;30.63;5.88;;;;;;;7.46;100.00;100193.91;5052991;28;20025;-61
2023/03/25 08:28:57;;;;;;;23.55;5.22;;;;;;;7.50;100.00;100195.75;5052089;28;20430;-61
2023/03/25 08:31:23;;;;;;;24.20;5.80;;;;;;;7.52;100.00;100188.13;5052736;28;20025;-61
2023/03/25 08:33:49;;;;;;;24.25;5.63;;;;;;;7.52;100.00;100198.38;5052807;28;20078;-60
2023/03/25 08:36:18;;;;;;;35.60;6.35;;;;;;;7.52;100.00;100208.63;5052071;28;20032;-61
2023/03/25 08:38:44;;;;;;;23.67;6.35;;;;;;;7.53;100.00;100207.81;5052465;28;20384;-60
2023/03/25 08:41:10;;;;;;;23.33;6.07;;;;;;;7.64;100.00;100200.44;5052537;28;20108;-60
2023/03/25 08:43:35;;;;;;;31.17;6.25;;;;;;;7.75;100.00;100214.47;5051954;28;20461;-61
2023/03/25 08:46:00;;;;;;;27.70;6.32;;;;;;;7.73;100.00;100196.47;5052394;28;20025;-61
2023/03/25 08:48:26;;;;;;;27.73;6.10;;;;;;;7.72;100.00;100198.97;5052605;28;20433;-60
2023/03/25 08:50:52;;;;;;;30.48;6.82;;;;;;;7.74;100.00;100189.66;5051926;28;20023;-61
2023/03/25 08:53:17;;;;;;;26.02;6.72;;;;;;;7.73;100.00;100204.19;5052118;28;20033;-61
2023/03/25 08:55:42;;;;;;;29.58;7.63;;;;;;;7.74;100.00;100198.19;5052810;28;20086;-60
2023/03/25 08:58:08;;;;;;;28.15;6.35;;;;;;;7.79;100.00;100206.03;5051739;28;20104;-61
2023/03/25 09:00:36;;;;;;;29.05;6.18;;;;;;;7.87;100.00;100203.72;5052332;28;20041;-61
2023/03/25 09:03:03;;;;;;;29.92;6.70;;;;;;;7.95;100.00;100196.25;5051893;28;20067;-61
2023/03/25 09:05:31;;;;;;;31.67;6.30;;;;;;;8.01;100.00;100196.44;5052243;28;20029;-60
2023/03/25 09:07:56;;;;;;;27.25;6.78;;;;;;;8.17;100.00;100188.38;5052086;28;20743;-59
2023/03/25 09:10:22;;;;;;;27.55;6.10;;;;;;;8.39;100.00;100188.94;5052241;28;20107;-61
2023/03/25 09:12:47;;;;;;;39.90;7.55;;;;;;;8.65;100.00;100189.69;5052441;28;20384;-61
2023/03/25 09:15:12;;;;;;;32.95;6.72;;;;;;;8.86;100.00;100197.09;5052082;28;20379;-62
2023/03/25 09:17:38;;;;;;;28.02;6.43;;;;;;;9.03;100.00;100183.81;5051943;28;20100;-60
2023/03/25 09:20:07;;;;;;;30.98;6.28;;;;;;;9.22;100.00;100188.56;5051917;28;20148;-61
2023/03/25 09:22:33;;;;;;;33.58;7.07;;;;;;;9.31;100.00;100181.91;5052316;28;20512;-61
2023/03/25 09:24:58;;;;;;;25.02;5.90;;;;;;;9.52;100.00;100197.00;5051557;28;20081;-61
2023/03/25 09:27:24;;;;;;;28.95;6.88;;;;;;;9.58;100.00;100198.81;5052291;28;20029;-60
2023/03/25 09:29:50;;;;;;;36.90;7.90;;;;;;;9.70;100.00;100186.25;5052432;28;20017;-61
2023/03/25 09:32:17;;;;;;;28.20;6.57;;;;;;;9.65;99.19;100205.88;5051306;28;20479;-62
2023/03/25 09:34:43;;;;;;;38.70;6.75;;;;;;;9.69;98.84;100197.38;5052095;28;20032;-60
2023/03/25 09:37:08;;;;;;;32.22;6.68;;;;;;;9.92;98.31;100194.47;5051853;28;20088;-61
2023/03/25 09:39:33;;;;;;;31.35;6.68;;;;;;;10.17;96.19;100191.56;5051847;28;20025;-60
2023/03/25 09:42:23;;;;;;;26.35;6.38;;;;;;;10.26;96.74;100205.47;5053388;28;20483;-61
2023/03/25 09:45:03;;;;;;;31.00;6.80;;;;;;;10.09;96.92;100208.53;5055892;28;20029;-61
2023/03/25 09:47:32;;;;;;;32.22;7.13;;;;;;;9.89;97.69;100195.25;5055440;28;20029;-61
2023/03/25 09:50:02;;;;;;;31.35;6.28;;;;;;;9.99;95.60;100196.31;5055725;28;20021;-62
2023/03/25 09:52:49;;;;;;;23.30;5.95;;;;;;;10.12;95.39;100213.78;5055130;28;20602;-61
2023/03/25 09:55:23;;;;;;;28.00;6.20;;;;;;;10.21;95.44;100210.50;5055259;28;20043;-61
2023/03/25 09:57:53;;;;;;;24.25;6.55;;;;;;;10.07;93.11;100207.66;5055777;28;20025;-61
2023/03/25 10:00:23;;;;;;;29.58;6.63;;;;;;;10.23;94.41;100205.41;5054978;28;20056;-61
2023/03/25 10:03:09;;;;;;;29.50;7.00;;;;;;;10.25;93.16;100219.16;5055518;28;20058;-61
2023/03/25 10:05:54;;;;;;;25.48;6.68;;;;;;;10.37;92.46;100215.16;5055561;28;20477;-61
2023/03/25 10:08:32;;;;;;;21.00;6.45;;;;;;;10.23;93.28;100231.16;5054698;28;20029;-61
2023/03/25 10:11:08;;;;;;;28.58;6.80;;;;;;;9.92;95.42;100221.06;5055287;28;20099;-61
2023/03/25 10:13:47;;;;;;;31.02;6.60;;;;;;;9.82;95.99;100225.13;5054949;28;20049;-60
2023/03/25 10:16:50;;;;;;;33.83;7.00;;;;;;;9.72;97.31;100223.16;5054796;28;20025;-61
2023/03/25 10:19:40;;;;;;;31.08;7.25;;;;;;;9.30;100.00;100213.63;5055222;28;20499;-60
2023/03/25 10:22:16;;;;;;;34.15;7.70;;;;;;;9.03;100.00;100233.50;5054293;28;20032;-60
2023/03/25 10:24:55;;;;;;;33.00;7.63;;;;;;;8.90;100.00;100222.03;5055094;28;20410;-60
2023/03/25 10:27:41;;;;;;;34.03;7.13;;;;;;;8.80;100.00;100221.75;5054567;28;20025;-61
2023/03/25 10:30:17;;;;;;;34.87;7.60;;;;;;;8.67;100.00;100223.13;5054754;28;20059;-61
2023/03/25 10:32:47;;;;;;;33.47;7.75;;;;;;;8.57;100.00;100248.56;5055132;28;20021;-61
2023/03/25 10:35:28;;;;;;;39.40;8.30;;;;;;;8.48;100.00;100235.47;5054263;28;20033;-61
2023/03/25 10:37:58;;;;;;;33.90;9.35;;;;;;;8.32;100.00;100228.97;5054778;28;20033;-61
2023/03/25 10:40:28;;;;;;;41.28;8.95;;;;;;;8.28;100.00;100239.16;5055032;28;20032;-61
2023/03/25 10:43:03;;;;;;;41.47;10.25;;;;;;;8.29;100.00;100235.72;5054014;28;20044;-61
2023/03/25 10:45:30;;;;;;;31.48;9.60;;;;;;;8.34;100.00;100239.28;5054796;28;20086;-61
2023/03/25 10:48:05;;;;;;;45.33;12.35;;;;;;;8.35;100.00;100233.34;5054302;28;20029;-62
2023/03/25 10:50:30;;;;;;;34.75;10.82;;;;;;;8.38;100.00;100243.72;5054239;28;20070;-61
2023/03/25 10:52:56;;;;;;;29.98;10.20;;;;;;;8.50;100.00;100249.22;5053309;28;20104;-61
2023/03/25 10:55:31;;;;;;;35.28;7.78;;;;;;;8.65;100.00;100237.63;5054443;28;20025;-61
2023/03/25 10:57:57;;;;;;;36.55;8.75;;;;;;;8.76;100.00;100235.38;5054160;28;20021;-62
2023/03/25 11:00:25;;;;;;;31.30;7.82;;;;;;;8.81;100.00;100238.94;5054423;28;20148;-61
2023/03/25 11:02:50;;;;;;;27.52;7.32;;;;;;;8.87;100.00;100239.97;5054125;28;20032;-62
2023/03/25 11:05:23;;;;;;;33.40;9.40;;;;;;;9.10;100.00;100236.25;5053982;28;20090;-61
2023/03/25 11:07:52;;;;;;;37.25;6.65;;;;;;;9.31;99.79;100230.75;5054485;28;20029;-61
2023/03/25 11:10:28;;;;;;;22.83;6.15;;;;;;;9.48;94.11;100238.91;5053608;28;20021;-61
2023/03/25 11:12:57;;;;;;;25.08;5.38;;;;;;;9.60;92.42;100228.03;5053751;28;20468;-61
2023/03/25 11:15:32;;;;;;;24.58;5.70;;;;;;;9.71;91.67;100236.88;5054416;28;20025;-61
2023/03/25 11:18:19;;;;;;;26.90;5.85;;;;;;;9.89;86.52;100252.75;5053236;28;20030;-59
2023/03/25 11:20:48;;;;;;;30.92;10.52;;;;;;;10.35;87.44;100252.00;5054199;28;20109;-60
2023/03/25 11:23:23;;;;;;;24.27;7.10;;;;;;;10.70;83.95;100255.34;5053713;28;20036;-60
2023/03/25 11:25:49;;;;;;;16.45;4.97;;;;;;;10.92;81.48;100242.81;5053454;28;20075;-60
2023/03/25 11:28:37;;;;;;;17.42;3.55;;;;;;;10.85;80.77;100254.75;5053832;28;20052;-61
2023/03/25 11:31:11;;;;;;;20.90;5.85;;;;;;;10.59;79.63;100256.81;5052896;28;20425;-60
2023/03/25 11:33:39;;;;;;;17.88;4.93;;;;;;;10.39;79.70;100269.28;5053453;28;20040;-61